Dayhoit, Kentucky
Current Conditions -  °F | °C
As of 5:55 AM on Friday 24 Oct 2014 (Local Time) from KI35 Reporting Station
Overcast Overcast  
Wind Chill: 38°   Ceiling: 300
Heat Index: 41°   Visibility: 5mi
Dew Point: 41°   Wind: 5mph
Humidity: 100%   Direction: 60°ENE
Pressure: 30.13"   Gusts: NA
Location:  36.85°N, 83.38°W
Report Text: KI35 240955Z AUTO 06004KT 5SM OVC003 05/05 A3013 RMK AO1
Loading
Personal Weather Stations






























Interactive Weather Map
Tropical Storm Tracking
New forecast layout! Learn more

10-Day Weather Forecast

Advertisements
Track Severe Weather on mobile